createdAt,value
2019-04-06T00:02:52.995Z,54.27
2019-04-06T00:07:54.658Z,54.43
2019-04-06T00:12:56.220Z,54.56
2019-04-06T00:17:57.814Z,54.75
2019-04-06T00:22:59.581Z,54.57
2019-04-06T00:28:01.136Z,54.76
2019-04-06T00:33:04.721Z,54.86
2019-04-06T00:38:06.766Z,54.66
2019-04-06T00:43:08.485Z,54.96
2019-04-06T00:48:10.148Z,55.16
2019-04-06T00:53:11.840Z,54.99
2019-04-06T00:58:13.400Z,54.78
2019-04-06T01:03:15.079Z,55.39
2019-04-06T01:08:16.645Z,55.02
2019-04-06T01:13:18.232Z,55.29
2019-04-06T01:18:19.784Z,55.17
2019-04-06T01:23:21.330Z,55.23
2019-04-06T01:28:22.877Z,55.29
2019-04-06T01:33:24.573Z,54.97
2019-04-06T01:38:26.317Z,55.18
2019-04-06T01:43:27.866Z,55.55
2019-04-06T01:48:29.414Z,55.30
2019-04-06T01:53:32.134Z,56.01
2019-04-06T01:58:33.798Z,55.70
2019-04-06T02:03:35.424Z,56.11
2019-04-06T02:08:37.037Z,56.03
2019-04-06T02:13:38.726Z,56.90
2019-04-06T02:18:40.439Z,56.55
2019-04-06T02:23:41.989Z,56.74
2019-04-06T02:28:44.693Z,56.68
2019-04-06T02:33:52.331Z,56.53
2019-04-06T02:38:56.784Z,57.04
2019-04-06T02:43:58.465Z,59.18
2019-04-06T02:49:00.107Z,59.20
2019-04-06T02:54:02.012Z,60.01
2019-04-06T02:59:04.127Z,61.19
2019-04-06T03:04:05.809Z,60.38
2019-04-06T03:09:07.370Z,59.17
2019-04-06T03:14:09.123Z,59.67
2019-04-06T03:19:10.669Z,59.11
2019-04-06T03:24:12.266Z,59.00
2019-04-06T03:29:13.811Z,59.15
2019-04-06T03:34:20.750Z,59.37
2019-04-06T03:39:18.958Z,59.51
2019-04-06T03:44:20.676Z,59.60
2019-04-06T03:49:22.292Z,59.54
2019-04-06T03:54:24.045Z,58.67
2019-04-06T03:59:25.671Z,58.67
2019-04-06T04:04:27.463Z,58.41
2019-04-06T04:09:29.113Z,58.50
2019-04-06T04:14:30.678Z,58.77
2019-04-06T04:19:32.246Z,58.77
2019-04-06T04:24:33.826Z,58.78
2019-04-06T04:29:35.367Z,59.17
2019-04-06T04:34:36.959Z,59.34
2019-04-06T04:39:38.510Z,59.36
2019-04-06T04:44:42.749Z,60.31
2019-04-06T04:49:44.520Z,61.01
2019-04-06T04:54:46.284Z,61.08
2019-04-06T04:59:47.939Z,61.04
2019-04-06T05:04:49.483Z,62.04
2019-04-06T05:09:51.224Z,62.25
2019-04-06T05:15:03.609Z,61.70
2019-04-06T05:20:06.936Z,62.82
2019-04-06T05:25:09.037Z,63.89
2019-04-06T05:30:11.351Z,63.57
2019-04-06T05:35:13.237Z,63.90
2019-04-06T05:40:14.912Z,64.11
2019-04-06T05:45:16.475Z,64.97
2019-04-06T05:50:18.057Z,66.06
2019-04-06T05:55:19.838Z,66.77
2019-04-06T06:00:21.451Z,66.41
2019-04-06T06:05:23.116Z,65.72
2019-04-06T06:10:24.673Z,64.96
2019-04-06T06:15:26.369Z,64.35
2019-04-06T06:20:28.063Z,64.46
2019-04-06T06:25:31.053Z,63.71
2019-04-06T06:30:32.746Z,63.95
2019-04-06T06:35:34.330Z,63.53
2019-04-06T06:40:35.990Z,62.94
2019-04-06T06:45:37.645Z,61.77
2019-04-06T06:50:39.194Z,61.45
2019-04-06T06:55:41.122Z,60.08
2019-04-06T07:00:42.903Z,60.39
2019-04-06T07:05:44.452Z,58.45
2019-04-06T07:10:46.104Z,57.20
2019-04-06T07:15:47.695Z,55.24
2019-04-06T07:20:49.245Z,54.38
2019-04-06T07:25:57.451Z,55.75
2019-04-06T07:30:54.580Z,56.36
2019-04-06T07:35:56.407Z,57.22
2019-04-06T07:40:57.953Z,56.78
2019-04-06T07:45:59.609Z,57.00
2019-04-06T07:51:01.193Z,57.58
2019-04-06T07:56:03.537Z,57.90
2019-04-06T08:01:05.184Z,57.64
2019-04-06T08:06:06.838Z,57.66
2019-04-06T08:11:08.708Z,57.63
2019-04-06T08:16:10.416Z,57.39
2019-04-06T08:21:12.026Z,56.54
2019-04-06T08:26:13.643Z,57.29
2019-04-06T08:31:15.203Z,57.38
2019-04-06T08:36:16.869Z,57.59
2019-04-06T08:41:18.459Z,56.88
2019-04-06T08:46:20.034Z,57.31
2019-04-06T08:51:21.841Z,58.00
2019-04-06T08:56:23.549Z,57.20
2019-04-06T09:01:27.009Z,57.43
2019-04-06T09:06:30.075Z,58.39
2019-04-06T09:11:31.797Z,59.60
2019-04-06T09:16:33.381Z,59.95
2019-04-06T09:21:34.933Z,59.68
2019-04-06T09:26:36.774Z,57.00
2019-04-06T09:31:38.709Z,57.61
2019-04-06T09:36:40.388Z,57.08
2019-04-06T09:41:42.531Z,56.50
2019-04-06T09:47:03.046Z,58.13
2019-04-06T09:52:24.954Z,54.69
2019-04-06T09:57:40.398Z,54.11
2019-04-06T10:02:50.085Z,54.47
2019-04-06T10:08:02.601Z,55.32
2019-04-06T10:13:16.383Z,56.50
2019-04-06T10:18:19.841Z,56.84
2019-04-06T10:23:30.534Z,56.51
2019-04-06T10:28:38.012Z,57.62
2019-04-06T10:33:56.680Z,55.56
2019-04-06T10:39:16.891Z,58.09
2019-04-06T10:44:20.405Z,58.26
2019-04-06T10:49:27.570Z,58.54
2019-04-06T10:54:34.938Z,57.82
2019-04-06T10:59:59.875Z,60.25
2019-04-06T11:04:53.411Z,62.63
2019-04-06T11:09:56.856Z,62.80
2019-04-06T11:15:17.155Z,62.42
2019-04-06T11:20:33.098Z,62.32
2019-04-06T11:25:52.059Z,64.77
2019-04-06T11:30:57.941Z,68.40
2019-04-06T11:36:04.555Z,71.76
2019-04-06T11:41:08.841Z,69.82
2019-04-06T11:46:24.480Z,73.00
2019-04-06T11:51:34.170Z,74.64
2019-04-06T11:56:55.770Z,75.16
2019-04-06T12:02:04.979Z,75.80
2019-04-06T12:07:06.599Z,76.69
2019-04-06T12:12:16.334Z,76.98
2019-04-06T12:17:20.027Z,76.65
2019-04-06T12:22:30.447Z,75.68
2019-04-06T12:27:50.855Z,76.12
2019-04-06T12:33:11.312Z,77.77
2019-04-06T12:38:25.502Z,78.27
2019-04-06T12:43:45.535Z,76.83
2019-04-06T12:49:05.880Z,76.20
2019-04-06T12:54:13.746Z,76.19
2019-04-06T12:59:29.638Z,76.00
2019-04-06T13:04:50.634Z,78.25
2019-04-06T13:09:55.186Z,78.77
2019-04-06T13:14:58.645Z,78.17
2019-04-06T13:20:19.094Z,79.83
2019-04-06T13:25:28.617Z,79.08
2019-04-06T13:30:32.205Z,79.29
2019-04-06T13:35:41.541Z,77.82
2019-04-06T13:40:45.000Z,78.06
2019-04-06T13:45:52.616Z,76.97
2019-04-06T13:51:09.549Z,78.00
2019-04-06T13:56:30.043Z,78.56
2019-04-06T14:01:36.155Z,78.53
2019-04-06T14:06:51.943Z,78.81
2019-04-06T14:11:55.405Z,79.73
2019-04-06T14:17:03.196Z,79.49
2019-04-06T14:22:18.945Z,80.39
2019-04-06T14:27:31.590Z,80.79
2019-04-06T14:32:54.042Z,80.43
2019-04-06T14:38:16.271Z,80.47
2019-04-06T14:43:29.069Z,80.29
2019-04-06T14:48:32.626Z,81.11
2019-04-06T14:53:54.576Z,81.68
2019-04-06T14:58:57.208Z,81.65
2019-04-06T15:04:18.192Z,81.43
2019-04-06T15:09:22.125Z,82.38
2019-04-06T15:14:31.619Z,82.50
2019-04-06T15:19:33.236Z,82.43
2019-04-06T15:24:36.699Z,81.63
2019-04-06T15:29:46.312Z,81.33
2019-04-06T15:34:49.771Z,81.16
2019-04-06T15:39:53.636Z,80.97
2019-04-06T15:45:10.268Z,80.13
2019-04-06T15:50:20.032Z,81.44
2019-04-06T15:55:29.543Z,82.05
2019-04-06T16:00:33.382Z,81.90
2019-04-06T16:05:37.716Z,82.11
2019-04-06T16:10:44.107Z,82.52
2019-04-06T16:15:53.738Z,82.87
2019-04-06T16:21:00.724Z,82.70
2019-04-06T16:26:19.229Z,83.00
2019-04-06T16:31:28.760Z,83.14
2019-04-06T16:36:33.219Z,82.77
2019-04-06T16:41:53.652Z,82.89
2019-04-06T16:47:13.907Z,82.57
2019-04-06T16:52:29.976Z,82.62
2019-04-06T16:57:53.750Z,79.69
2019-04-06T17:02:57.711Z,77.99
2019-04-06T17:08:10.738Z,75.74
2019-04-06T17:13:08.901Z,78.14
2019-04-06T17:18:24.418Z,78.15
2019-04-06T17:23:28.299Z,80.03
2019-04-06T17:28:34.432Z,81.42
2019-04-06T17:33:37.901Z,81.61
2019-04-06T17:39:07.308Z,81.62
2019-04-06T17:44:27.885Z,81.69
2019-04-06T17:49:32.609Z,81.69
2019-04-06T17:54:53.981Z,82.50
2019-04-06T18:00:14.286Z,83.03
2019-04-06T18:05:34.523Z,83.00
2019-04-06T18:10:38.389Z,82.33
2019-04-06T18:15:40.501Z,82.14
2019-04-06T18:20:42.209Z,81.58
2019-04-06T18:25:44.114Z,81.12
2019-04-06T18:30:47.584Z,80.88
2019-04-06T18:35:49.608Z,81.12
2019-04-06T18:40:51.530Z,79.93
2019-04-06T18:45:55.435Z,79.09
2019-04-06T18:50:57.666Z,79.54
2019-04-06T18:55:59.374Z,80.43
2019-04-06T19:01:00.941Z,80.59
2019-04-06T19:06:03.317Z,79.45
2019-04-06T19:11:05.191Z,78.85
2019-04-06T19:16:07.018Z,77.39
2019-04-06T19:21:09.533Z,76.42
2019-04-06T19:26:11.130Z,76.00
2019-04-06T19:31:13.497Z,76.27
2019-04-06T19:36:16.281Z,76.10
2019-04-06T19:41:18.079Z,76.53
2019-04-06T19:46:20.360Z,75.62
2019-04-06T19:51:23.938Z,75.31
2019-04-06T19:56:28.294Z,76.16
2019-04-06T20:01:31.237Z,75.71
2019-04-06T20:06:33.235Z,75.17
2019-04-06T20:11:37.879Z,75.00
2019-04-06T20:16:41.987Z,74.98
2019-04-06T20:21:43.611Z,74.69
2019-04-06T20:26:47.554Z,75.74
2019-04-06T20:31:52.481Z,76.60
2019-04-06T20:36:54.201Z,76.95
2019-04-06T20:41:57.875Z,76.79
2019-04-06T20:47:01.656Z,76.56
2019-04-06T20:52:04.403Z,77.51
2019-04-06T20:57:07.626Z,77.19
2019-04-06T21:02:11.465Z,76.80
2019-04-06T21:07:13.020Z,75.82
2019-04-06T21:12:16.224Z,76.88
2019-04-06T21:17:19.726Z,77.95
2019-04-06T21:22:21.831Z,77.76
2019-04-06T21:27:25.006Z,78.10
2019-04-06T21:32:28.263Z,78.05
2019-04-06T21:37:31.135Z,78.81
2019-04-06T21:42:34.237Z,79.14
2019-04-06T21:47:37.934Z,79.39
2019-04-06T21:52:39.484Z,79.82
2019-04-06T21:57:41.974Z,79.46
2019-04-06T22:02:47.044Z,79.26
2019-04-06T22:07:52.154Z,79.21
2019-04-06T22:12:52.448Z,79.28
2019-04-06T22:17:54.080Z,79.41
2019-04-06T22:22:57.327Z,79.56
2019-04-06T22:28:00.923Z,79.24
2019-04-06T22:33:02.991Z,79.07
2019-04-06T22:38:06.185Z,78.70
2019-04-06T22:43:08.830Z,78.38
2019-04-06T22:48:10.604Z,77.93
2019-04-06T22:53:13.484Z,77.19
2019-04-06T22:58:15.306Z,78.22
2019-04-06T23:03:25.332Z,77.73
2019-04-06T23:08:26.841Z,76.74
2019-04-06T23:13:28.963Z,76.90
2019-04-06T23:18:31.106Z,76.77
2019-04-06T23:23:32.807Z,76.84
2019-04-06T23:28:34.563Z,77.85
2019-04-06T23:33:36.109Z,77.97
2019-04-06T23:38:39.499Z,78.26
2019-04-06T23:43:41.577Z,78.27
2019-04-06T23:48:44.053Z,79.39
2019-04-06T23:53:45.676Z,78.85
2019-04-06T23:58:47.359Z,78.34
